sensor_id;sensor_type;location;lat;lon;timestamp;temperature;humidity
19805;DHT22;10062;51.052;13.756;2023-05-24T00:02:05;12.20;1.00
19805;DHT22;10062;51.052;13.756;2023-05-24T00:07:09;12.00;1.00
19805;DHT22;10062;51.052;13.756;2023-05-24T00:09:41;12.10;1.00
19805;DHT22;10062;51.052;13.756;2023-05-24T00:12:13;12.10;1.00
19805;DHT22;10062;51.052;13.756;2023-05-24T00:14:47;12.10;1.00
19805;DHT22;10062;51.052;13.756;2023-05-24T00:17:18;12.10;1.00
19805;DHT22;10062;51.052;13.756;2023-05-24T00:19:51;12.10;1.00
19805;DHT22;10062;51.052;13.756;2023-05-24T00:22:22;12.00;1.00
19805;DHT22;10062;51.052;13.756;2023-05-24T00:24:54;12.00;1.00
19805;DHT22;10062;51.052;13.756;2023-05-24T00:27:26;11.90;1.00
19805;DHT22;10062;51.052;13.756;2023-05-24T00:29:59;11.90;1.00
19805;DHT22;10062;51.052;13.756;2023-05-24T00:32:32;11.90;1.00
19805;DHT22;10062;51.052;13.756;2023-05-24T00:35:04;11.90;1.00
19805;DHT22;10062;51.052;13.756;2023-05-24T00:37:36;11.90;1.00
19805;DHT22;10062;51.052;13.756;2023-05-24T00:40:09;11.90;1.00
19805;DHT22;10062;51.052;13.756;2023-05-24T00:42:41;11.90;1.00
19805;DHT22;10062;51.052;13.756;2023-05-24T00:45:14;11.70;1.00
19805;DHT22;10062;51.052;13.756;2023-05-24T00:47:46;11.60;1.00
19805;DHT22;10062;51.052;13.756;2023-05-24T00:50:18;11.70;1.00
19805;DHT22;10062;51.052;13.756;2023-05-24T00:52:50;11.60;99.90
19805;DHT22;10062;51.052;13.756;2023-05-24T00:55:22;11.50;1.00
19805;DHT22;10062;51.052;13.756;2023-05-24T00:57:54;11.50;1.00
19805;DHT22;10062;51.052;13.756;2023-05-24T01:00:29;11.50;99.90
19805;DHT22;10062;51.052;13.756;2023-05-24T01:03:01;11.60;1.00
19805;DHT22;10062;51.052;13.756;2023-05-24T01:05:33;11.50;1.00
19805;DHT22;10062;51.052;13.756;2023-05-24T01:08:11;11.50;1.00
19805;DHT22;10062;51.052;13.756;2023-05-24T01:10:50;11.70;99.90
19805;DHT22;10062;51.052;13.756;2023-05-24T01:13:28;11.70;99.90
19805;DHT22;10062;51.052;13.756;2023-05-24T01:16:06;11.60;1.00
19805;DHT22;10062;51.052;13.756;2023-05-24T01:18:45;11.50;1.00
19805;DHT22;10062;51.052;13.756;2023-05-24T01:21:31;11.60;1.00
19805;DHT22;10062;51.052;13.756;2023-05-24T01:24:21;11.60;1.00
19805;DHT22;10062;51.052;13.756;2023-05-24T01:27:04;11.50;1.00
19805;DHT22;10062;51.052;13.756;2023-05-24T01:29:38;11.80;99.90
19805;DHT22;10062;51.052;13.756;2023-05-24T01:32:11;11.50;1.00
19805;DHT22;10062;51.052;13.756;2023-05-24T01:34:43;11.60;1.00
19805;DHT22;10062;51.052;13.756;2023-05-24T01:37:15;11.60;99.90
19805;DHT22;10062;51.052;13.756;2023-05-24T01:39:47;11.50;99.90
19805;DHT22;10062;51.052;13.756;2023-05-24T01:42:25;11.50;99.90
19805;DHT22;10062;51.052;13.756;2023-05-24T01:45:07;11.40;99.90
19805;DHT22;10062;51.052;13.756;2023-05-24T01:47:55;11.50;1.00
19805;DHT22;10062;51.052;13.756;2023-05-24T01:50:32;11.30;1.00
19805;DHT22;10062;51.052;13.756;2023-05-24T01:53:07;11.40;99.90
19805;DHT22;10062;51.052;13.756;2023-05-24T01:55:39;11.30;99.90
19805;DHT22;10062;51.052;13.756;2023-05-24T01:58:15;11.20;1.00
19805;DHT22;10062;51.052;13.756;2023-05-24T02:00:47;11.30;1.00
19805;DHT22;10062;51.052;13.756;2023-05-24T02:03:20;11.30;1.00
19805;DHT22;10062;51.052;13.756;2023-05-24T02:05:52;11.30;1.00
19805;DHT22;10062;51.052;13.756;2023-05-24T02:08:24;11.40;1.00
19805;DHT22;10062;51.052;13.756;2023-05-24T02:10:55;11.30;1.00
19805;DHT22;10062;51.052;13.756;2023-05-24T02:13:28;11.20;99.90
19805;DHT22;10062;51.052;13.756;2023-05-24T02:18:34;11.10;1.00
19805;DHT22;10062;51.052;13.756;2023-05-24T02:21:06;11.10;1.00
19805;DHT22;10062;51.052;13.756;2023-05-24T02:23:37;10.90;1.00
19805;DHT22;10062;51.052;13.756;2023-05-24T02:26:09;10.90;99.90
19805;DHT22;10062;51.052;13.756;2023-05-24T02:28:43;10.90;99.90
19805;DHT22;10062;51.052;13.756;2023-05-24T02:31:15;11.00;99.90
19805;DHT22;10062;51.052;13.756;2023-05-24T02:33:46;10.90;99.90
19805;DHT22;10062;51.052;13.756;2023-05-24T02:36:18;10.80;99.90
19805;DHT22;10062;51.052;13.756;2023-05-24T02:38:50;10.80;63.70
19805;DHT22;10062;51.052;13.756;2023-05-24T02:41:21;10.70;1.00
19805;DHT22;10062;51.052;13.756;2023-05-24T02:43:54;10.70;99.90
19805;DHT22;10062;51.052;13.756;2023-05-24T02:46:26;10.70;1.00
19805;DHT22;10062;51.052;13.756;2023-05-24T02:48:58;10.80;99.90
19805;DHT22;10062;51.052;13.756;2023-05-24T02:54:02;10.70;1.00
19805;DHT22;10062;51.052;13.756;2023-05-24T02:56:34;10.70;99.90
19805;DHT22;10062;51.052;13.756;2023-05-24T02:59:08;10.70;99.90
19805;DHT22;10062;51.052;13.756;2023-05-24T03:01:42;10.90;1.00
19805;DHT22;10062;51.052;13.756;2023-05-24T03:04:14;10.80;99.90
19805;DHT22;10062;51.052;13.756;2023-05-24T03:06:46;10.70;1.00
19805;DHT22;10062;51.052;13.756;2023-05-24T03:09:19;10.70;99.90
19805;DHT22;10062;51.052;13.756;2023-05-24T03:11:51;10.80;1.00
19805;DHT22;10062;51.052;13.756;2023-05-24T03:14:25;10.60;1.00
19805;DHT22;10062;51.052;13.756;2023-05-24T03:16:57;10.80;99.90
19805;DHT22;10062;51.052;13.756;2023-05-24T03:19:29;10.80;1.00
19805;DHT22;10062;51.052;13.756;2023-05-24T03:22:01;10.70;1.00
19805;DHT22;10062;51.052;13.756;2023-05-24T03:24:33;10.70;1.00
19805;DHT22;10062;51.052;13.756;2023-05-24T03:27:07;10.80;1.00
19805;DHT22;10062;51.052;13.756;2023-05-24T03:29:40;10.60;1.00
19805;DHT22;10062;51.052;13.756;2023-05-24T03:32:12;10.60;1.00
19805;DHT22;10062;51.052;13.756;2023-05-24T03:34:44;10.60;1.00
19805;DHT22;10062;51.052;13.756;2023-05-24T03:37:15;10.60;1.00
19805;DHT22;10062;51.052;13.756;2023-05-24T03:39:49;10.60;1.00
19805;DHT22;10062;51.052;13.756;2023-05-24T03:42:34;10.60;99.90
19805;DHT22;10062;51.052;13.756;2023-05-24T03:45:09;10.70;1.00
19805;DHT22;10062;51.052;13.756;2023-05-24T03:47:42;10.60;1.00
19805;DHT22;10062;51.052;13.756;2023-05-24T03:50:13;10.60;99.90
19805;DHT22;10062;51.052;13.756;2023-05-24T03:52:45;10.60;1.00
19805;DHT22;10062;51.052;13.756;2023-05-24T03:55:17;10.60;1.00
19805;DHT22;10062;51.052;13.756;2023-05-24T03:57:49;10.60;99.90
19805;DHT22;10062;51.052;13.756;2023-05-24T04:00:22;10.60;99.90
19805;DHT22;10062;51.052;13.756;2023-05-24T04:02:55;10.60;1.00
19805;DHT22;10062;51.052;13.756;2023-05-24T04:05:28;10.50;99.90
19805;DHT22;10062;51.052;13.756;2023-05-24T04:08:00;10.50;1.00
19805;DHT22;10062;51.052;13.756;2023-05-24T04:10:32;10.60;1.00
19805;DHT22;10062;51.052;13.756;2023-05-24T04:13:04;10.70;99.90
19805;DHT22;10062;51.052;13.756;2023-05-24T04:15:41;10.70;1.00
19805;DHT22;10062;51.052;13.756;2023-05-24T04:18:14;10.70;1.00
19805;DHT22;10062;51.052;13.756;2023-05-24T04:20:47;10.50;1.00
19805;DHT22;10062;51.052;13.756;2023-05-24T04:23:19;10.60;1.00
19805;DHT22;10062;51.052;13.756;2023-05-24T04:25:51;10.60;99.90
19805;DHT22;10062;51.052;13.756;2023-05-24T04:28:23;10.60;99.90
19805;DHT22;10062;51.052;13.756;2023-05-24T04:30:57;10.70;99.90
19805;DHT22;10062;51.052;13.756;2023-05-24T04:33:29;10.60;99.90
19805;DHT22;10062;51.052;13.756;2023-05-24T04:36:01;10.60;99.90
19805;DHT22;10062;51.052;13.756;2023-05-24T04:38:33;10.70;99.90
19805;DHT22;10062;51.052;13.756;2023-05-24T04:41:06;10.80;10.90
19805;DHT22;10062;51.052;13.756;2023-05-24T04:43:37;11.10;1.00
19805;DHT22;10062;51.052;13.756;2023-05-24T04:46:12;11.00;1.00
19805;DHT22;10062;51.052;13.756;2023-05-24T04:48:43;10.90;99.90
19805;DHT22;10062;51.052;13.756;2023-05-24T04:51:15;10.90;1.00
19805;DHT22;10062;51.052;13.756;2023-05-24T04:53:47;10.80;1.00
19805;DHT22;10062;51.052;13.756;2023-05-24T04:56:18;10.80;76.30
19805;DHT22;10062;51.052;13.756;2023-05-24T04:58:50;10.90;1.00
19805;DHT22;10062;51.052;13.756;2023-05-24T05:01:23;10.80;1.00
19805;DHT22;10062;51.052;13.756;2023-05-24T05:03:55;11.00;1.00
19805;DHT22;10062;51.052;13.756;2023-05-24T05:06:26;11.00;99.90
19805;DHT22;10062;51.052;13.756;2023-05-24T05:08:58;11.00;1.00
19805;DHT22;10062;51.052;13.756;2023-05-24T05:14:02;11.00;1.00
19805;DHT22;10062;51.052;13.756;2023-05-24T05:16:36;11.10;73.10
19805;DHT22;10062;51.052;13.756;2023-05-24T05:19:08;11.00;1.00
19805;DHT22;10062;51.052;13.756;2023-05-24T05:21:40;11.20;1.00
19805;DHT22;10062;51.052;13.756;2023-05-24T05:24:14;11.10;1.00
19805;DHT22;10062;51.052;13.756;2023-05-24T05:26:46;11.10;1.00
19805;DHT22;10062;51.052;13.756;2023-05-24T05:29:18;11.30;99.90
19805;DHT22;10062;51.052;13.756;2023-05-24T05:31:53;11.30;99.90
19805;DHT22;10062;51.052;13.756;2023-05-24T05:34:25;11.20;1.00
19805;DHT22;10062;51.052;13.756;2023-05-24T05:36:56;11.30;99.90
19805;DHT22;10062;51.052;13.756;2023-05-24T05:39:28;11.40;1.00
19805;DHT22;10062;51.052;13.756;2023-05-24T05:42:01;11.30;1.00
19805;DHT22;10062;51.052;13.756;2023-05-24T05:44:32;11.30;1.00
19805;DHT22;10062;51.052;13.756;2023-05-24T05:47:06;11.30;1.00
19805;DHT22;10062;51.052;13.756;2023-05-24T05:49:38;11.50;1.00
19805;DHT22;10062;51.052;13.756;2023-05-24T05:52:10;11.40;1.00
19805;DHT22;10062;51.052;13.756;2023-05-24T05:54:42;11.60;99.90
19805;DHT22;10062;51.052;13.756;2023-05-24T05:57:14;11.70;1.00
19805;DHT22;10062;51.052;13.756;2023-05-24T05:59:50;11.60;1.00
19805;DHT22;10062;51.052;13.756;2023-05-24T06:02:24;11.90;1.00
19805;DHT22;10062;51.052;13.756;2023-05-24T06:04:55;11.90;99.90
19805;DHT22;10062;51.052;13.756;2023-05-24T06:07:28;11.90;1.00
19805;DHT22;10062;51.052;13.756;2023-05-24T06:10:01;11.90;1.00
19805;DHT22;10062;51.052;13.756;2023-05-24T06:12:35;12.00;99.90
19805;DHT22;10062;51.052;13.756;2023-05-24T06:15:08;12.20;99.90
19805;DHT22;10062;51.052;13.756;2023-05-24T06:17:41;12.20;99.90
19805;DHT22;10062;51.052;13.756;2023-05-24T06:22:47;12.40;99.90
19805;DHT22;10062;51.052;13.756;2023-05-24T06:25:20;12.60;1.00
19805;DHT22;10062;51.052;13.756;2023-05-24T06:27:53;12.40;1.00
19805;DHT22;10062;51.052;13.756;2023-05-24T06:30:25;12.40;1.40
19805;DHT22;10062;51.052;13.756;2023-05-24T06:32:58;12.40;1.00
19805;DHT22;10062;51.052;13.756;2023-05-24T06:35:30;11.80;99.90
19805;DHT22;10062;51.052;13.756;2023-05-24T06:38:02;12.60;1.00
19805;DHT22;10062;51.052;13.756;2023-05-24T06:43:06;12.70;1.00
19805;DHT22;10062;51.052;13.756;2023-05-24T06:45:38;12.70;1.00
19805;DHT22;10062;51.052;13.756;2023-05-24T06:48:11;12.80;99.90
19805;DHT22;10062;51.052;13.756;2023-05-24T06:50:42;12.90;99.90
19805;DHT22;10062;51.052;13.756;2023-05-24T06:53:15;12.90;1.00
19805;DHT22;10062;51.052;13.756;2023-05-24T06:58:18;12.90;1.00
19805;DHT22;10062;51.052;13.756;2023-05-24T07:00:50;12.70;1.00
19805;DHT22;10062;51.052;13.756;2023-05-24T07:03:23;12.80;99.90
19805;DHT22;10062;51.052;13.756;2023-05-24T07:05:56;12.90;99.90
19805;DHT22;10062;51.052;13.756;2023-05-24T07:08:28;12.80;68.60
19805;DHT22;10062;51.052;13.756;2023-05-24T07:11:00;12.90;1.00
19805;DHT22;10062;51.052;13.756;2023-05-24T07:13:32;12.70;99.90
19805;DHT22;10062;51.052;13.756;2023-05-24T07:16:05;12.70;1.00
19805;DHT22;10062;51.052;13.756;2023-05-24T07:18:38;12.50;1.00
19805;DHT22;10062;51.052;13.756;2023-05-24T07:21:11;12.50;1.00
19805;DHT22;10062;51.052;13.756;2023-05-24T07:26:14;12.40;99.90
19805;DHT22;10062;51.052;13.756;2023-05-24T07:28:46;12.10;1.00
19805;DHT22;10062;51.052;13.756;2023-05-24T07:31:18;12.20;1.00
19805;DHT22;10062;51.052;13.756;2023-05-24T07:33:51;12.30;38.50
19805;DHT22;10062;51.052;13.756;2023-05-24T07:38:55;12.10;99.90
19805;DHT22;10062;51.052;13.756;2023-05-24T07:43:59;12.00;1.00
19805;DHT22;10062;51.052;13.756;2023-05-24T07:46:30;12.20;1.00
19805;DHT22;10062;51.052;13.756;2023-05-24T07:49:04;12.00;99.90
19805;DHT22;10062;51.052;13.756;2023-05-24T07:51:37;11.80;1.00
19805;DHT22;10062;51.052;13.756;2023-05-24T07:54:09;11.90;99.90
19805;DHT22;10062;51.052;13.756;2023-05-24T07:56:41;11.90;99.90
19805;DHT22;10062;51.052;13.756;2023-05-24T07:59:13;12.00;1.00
19805;DHT22;10062;51.052;13.756;2023-05-24T08:01:44;12.10;1.00
19805;DHT22;10062;51.052;13.756;2023-05-24T08:04:18;12.10;1.00
19805;DHT22;10062;51.052;13.756;2023-05-24T08:06:50;12.20;1.00
19805;DHT22;10062;51.052;13.756;2023-05-24T08:09:21;12.30;1.00
19805;DHT22;10062;51.052;13.756;2023-05-24T08:11:53;12.30;77.70
19805;DHT22;10062;51.052;13.756;2023-05-24T08:14:25;12.40;1.00
19805;DHT22;10062;51.052;13.756;2023-05-24T08:16:56;12.40;1.00
19805;DHT22;10062;51.052;13.756;2023-05-24T08:19:31;12.50;1.00
19805;DHT22;10062;51.052;13.756;2023-05-24T08:22:05;12.50;99.90
19805;DHT22;10062;51.052;13.756;2023-05-24T08:24:37;12.50;1.00
19805;DHT22;10062;51.052;13.756;2023-05-24T08:27:08;12.70;1.00
19805;DHT22;10062;51.052;13.756;2023-05-24T08:29:40;12.60;1.00
19805;DHT22;10062;51.052;13.756;2023-05-24T08:32:12;13.00;1.00
19805;DHT22;10062;51.052;13.756;2023-05-24T08:34:44;12.90;1.00
19805;DHT22;10062;51.052;13.756;2023-05-24T08:37:16;13.00;1.00
19805;DHT22;10062;51.052;13.756;2023-05-24T08:39:50;13.10;1.00
19805;DHT22;10062;51.052;13.756;2023-05-24T08:42:23;13.30;1.00
19805;DHT22;10062;51.052;13.756;2023-05-24T08:44:58;13.40;1.00
19805;DHT22;10062;51.052;13.756;2023-05-24T08:47:33;13.50;1.00
19805;DHT22;10062;51.052;13.756;2023-05-24T08:50:08;13.50;1.00
19805;DHT22;10062;51.052;13.756;2023-05-24T08:52:41;13.60;99.90
19805;DHT22;10062;51.052;13.756;2023-05-24T08:55:14;13.70;99.90
19805;DHT22;10062;51.052;13.756;2023-05-24T08:57:46;13.90;99.90
19805;DHT22;10062;51.052;13.756;2023-05-24T09:00:19;13.80;1.00
19805;DHT22;10062;51.052;13.756;2023-05-24T09:02:52;13.80;1.00
19805;DHT22;10062;51.052;13.756;2023-05-24T09:05:26;14.00;99.90
19805;DHT22;10062;51.052;13.756;2023-05-24T09:08:00;13.90;99.90
19805;DHT22;10062;51.052;13.756;2023-05-24T09:10:33;14.10;99.90
19805;DHT22;10062;51.052;13.756;2023-05-24T09:13:05;14.70;1.00
19805;DHT22;10062;51.052;13.756;2023-05-24T09:15:38;15.10;1.00
19805;DHT22;10062;51.052;13.756;2023-05-24T09:18:10;15.10;1.00
19805;DHT22;10062;51.052;13.756;2023-05-24T09:20:43;15.00;1.00
19805;DHT22;10062;51.052;13.756;2023-05-24T09:23:14;14.90;1.00
19805;DHT22;10062;51.052;13.756;2023-05-24T09:25:47;14.80;1.00
19805;DHT22;10062;51.052;13.756;2023-05-24T09:28:19;14.70;1.00
19805;DHT22;10062;51.052;13.756;2023-05-24T09:30:58;14.80;1.00
19805;DHT22;10062;51.052;13.756;2023-05-24T09:33:31;15.20;1.00
19805;DHT22;10062;51.052;13.756;2023-05-24T09:36:05;15.70;1.00
19805;DHT22;10062;51.052;13.756;2023-05-24T09:38:37;16.40;1.00
19805;DHT22;10062;51.052;13.756;2023-05-24T09:41:09;17.50;1.00
19805;DHT22;10062;51.052;13.756;2023-05-24T09:43:48;18.60;99.90
19805;DHT22;10062;51.052;13.756;2023-05-24T09:46:19;19.20;84.50
19805;DHT22;10062;51.052;13.756;2023-05-24T09:48:56;19.80;1.00
19805;DHT22;10062;51.052;13.756;2023-05-24T09:51:29;20.20;1.00
19805;DHT22;10062;51.052;13.756;2023-05-24T09:54:02;20.20;1.00
19805;DHT22;10062;51.052;13.756;2023-05-24T09:56:34;20.60;1.00
19805;DHT22;10062;51.052;13.756;2023-05-24T09:59:06;20.70;1.00
19805;DHT22;10062;51.052;13.756;2023-05-24T10:01:39;20.30;1.00
19805;DHT22;10062;51.052;13.756;2023-05-24T10:04:10;20.20;1.00
19805;DHT22;10062;51.052;13.756;2023-05-24T10:06:45;20.00;1.00
19805;DHT22;10062;51.052;13.756;2023-05-24T10:09:17;19.30;1.00
19805;DHT22;10062;51.052;13.756;2023-05-24T10:11:50;19.10;1.00
19805;DHT22;10062;51.052;13.756;2023-05-24T10:14:24;18.90;1.00
19805;DHT22;10062;51.052;13.756;2023-05-24T10:16:56;19.20;1.00
19805;DHT22;10062;51.052;13.756;2023-05-24T10:19:28;19.80;1.00
19805;DHT22;10062;51.052;13.756;2023-05-24T10:22:04;19.50;1.00
19805;DHT22;10062;51.052;13.756;2023-05-24T10:24:39;19.60;1.00
19805;DHT22;10062;51.052;13.756;2023-05-24T10:27:18;20.60;1.00
19805;DHT22;10062;51.052;13.756;2023-05-24T10:29:56;22.90;1.00
19805;DHT22;10062;51.052;13.756;2023-05-24T10:32:31;26.10;1.00
19805;DHT22;10062;51.052;13.756;2023-05-24T10:35:05;27.50;1.00
19805;DHT22;10062;51.052;13.756;2023-05-24T10:37:39;25.90;1.00
19805;DHT22;10062;51.052;13.756;2023-05-24T10:40:22;24.60;1.00
19805;DHT22;10062;51.052;13.756;2023-05-24T10:42:54;24.50;1.00
19805;DHT22;10062;51.052;13.756;2023-05-24T10:45:30;25.90;1.00
19805;DHT22;10062;51.052;13.756;2023-05-24T10:48:31;26.30;1.00
19805;DHT22;10062;51.052;13.756;2023-05-24T10:51:34;27.80;1.00
19805;DHT22;10062;51.052;13.756;2023-05-24T10:54:14;26.10;1.00
19805;DHT22;10062;51.052;13.756;2023-05-24T10:56:47;25.20;1.00
19805;DHT22;10062;51.052;13.756;2023-05-24T10:59:28;25.00;1.00
19805;DHT22;10062;51.052;13.756;2023-05-24T11:02:00;24.50;1.00
19805;DHT22;10062;51.052;13.756;2023-05-24T11:04:35;25.20;1.00
19805;DHT22;10062;51.052;13.756;2023-05-24T11:07:07;25.90;1.00
19805;DHT22;10062;51.052;13.756;2023-05-24T11:09:41;25.50;1.00
19805;DHT22;10062;51.052;13.756;2023-05-24T11:12:17;23.70;1.00
19805;DHT22;10062;51.052;13.756;2023-05-24T11:14:52;22.60;1.00
19805;DHT22;10062;51.052;13.756;2023-05-24T11:17:23;22.10;1.00
19805;DHT22;10062;51.052;13.756;2023-05-24T11:19:55;22.60;1.00
19805;DHT22;10062;51.052;13.756;2023-05-24T11:22:27;22.80;1.00
19805;DHT22;10062;51.052;13.756;2023-05-24T11:25:00;22.30;1.00
19805;DHT22;10062;51.052;13.756;2023-05-24T11:27:41;20.20;1.00
19805;DHT22;10062;51.052;13.756;2023-05-24T11:30:14;19.40;1.00
19805;DHT22;10062;51.052;13.756;2023-05-24T11:32:47;19.70;1.00
19805;DHT22;10062;51.052;13.756;2023-05-24T11:35:19;20.20;1.00
19805;DHT22;10062;51.052;13.756;2023-05-24T11:37:52;20.40;1.00
19805;DHT22;10062;51.052;13.756;2023-05-24T11:40:25;20.50;1.00
19805;DHT22;10062;51.052;13.756;2023-05-24T11:42:57;20.80;1.00
19805;DHT22;10062;51.052;13.756;2023-05-24T11:45:29;20.90;1.00
19805;DHT22;10062;51.052;13.756;2023-05-24T11:48:03;20.40;1.00
19805;DHT22;10062;51.052;13.756;2023-05-24T11:50:38;20.50;1.00
19805;DHT22;10062;51.052;13.756;2023-05-24T11:53:12;20.40;1.00
19805;DHT22;10062;51.052;13.756;2023-05-24T11:55:45;20.90;1.00
19805;DHT22;10062;51.052;13.756;2023-05-24T11:58:21;21.20;1.00
19805;DHT22;10062;51.052;13.756;2023-05-24T12:00:53;21.20;1.00
19805;DHT22;10062;51.052;13.756;2023-05-24T12:03:25;20.50;1.00
19805;DHT22;10062;51.052;13.756;2023-05-24T12:05:57;20.70;1.00
19805;DHT22;10062;51.052;13.756;2023-05-24T12:08:29;20.80;1.00
19805;DHT22;10062;51.052;13.756;2023-05-24T12:11:02;21.10;1.00
19805;DHT22;10062;51.052;13.756;2023-05-24T12:13:34;21.50;1.00
19805;DHT22;10062;51.052;13.756;2023-05-24T12:16:09;21.10;1.00
19805;DHT22;10062;51.052;13.756;2023-05-24T12:18:42;20.70;1.00
19805;DHT22;10062;51.052;13.756;2023-05-24T12:21:14;20.90;1.00
19805;DHT22;10062;51.052;13.756;2023-05-24T12:23:47;21.00;1.00
19805;DHT22;10062;51.052;13.756;2023-05-24T12:26:20;21.10;1.00
19805;DHT22;10062;51.052;13.756;2023-05-24T12:28:52;21.00;1.00
19805;DHT22;10062;51.052;13.756;2023-05-24T12:31:25;21.10;1.00
19805;DHT22;10062;51.052;13.756;2023-05-24T12:33:57;20.80;1.00
19805;DHT22;10062;51.052;13.756;2023-05-24T12:36:29;20.80;1.00
19805;DHT22;10062;51.052;13.756;2023-05-24T12:39:16;21.10;1.00
19805;DHT22;10062;51.052;13.756;2023-05-24T12:41:54;20.90;1.00
19805;DHT22;10062;51.052;13.756;2023-05-24T12:44:27;21.00;1.00
19805;DHT22;10062;51.052;13.756;2023-05-24T12:47:01;21.00;1.00
19805;DHT22;10062;51.052;13.756;2023-05-24T12:49:33;21.10;1.00
19805;DHT22;10062;51.052;13.756;2023-05-24T12:52:05;21.30;1.00
19805;DHT22;10062;51.052;13.756;2023-05-24T12:54:36;21.50;1.00
19805;DHT22;10062;51.052;13.756;2023-05-24T12:57:09;21.40;1.00
19805;DHT22;10062;51.052;13.756;2023-05-24T12:59:41;21.40;1.00
19805;DHT22;10062;51.052;13.756;2023-05-24T13:02:13;21.00;1.00
19805;DHT22;10062;51.052;13.756;2023-05-24T13:04:44;20.70;1.00
19805;DHT22;10062;51.052;13.756;2023-05-24T13:07:16;20.70;1.00
19805;DHT22;10062;51.052;13.756;2023-05-24T13:09:48;21.10;1.00
19805;DHT22;10062;51.052;13.756;2023-05-24T13:12:21;21.60;1.00
19805;DHT22;10062;51.052;13.756;2023-05-24T13:14:53;21.90;1.00
19805;DHT22;10062;51.052;13.756;2023-05-24T13:17:25;21.90;1.00
19805;DHT22;10062;51.052;13.756;2023-05-24T13:19:57;22.10;1.00
19805;DHT22;10062;51.052;13.756;2023-05-24T13:22:29;22.10;1.00
19805;DHT22;10062;51.052;13.756;2023-05-24T13:25:00;22.30;1.00
19805;DHT22;10062;51.052;13.756;2023-05-24T13:27:34;22.30;1.00
19805;DHT22;10062;51.052;13.756;2023-05-24T13:30:07;22.20;1.00
19805;DHT22;10062;51.052;13.756;2023-05-24T13:32:39;21.90;1.00
19805;DHT22;10062;51.052;13.756;2023-05-24T13:35:10;21.80;1.00
19805;DHT22;10062;51.052;13.756;2023-05-24T13:37:42;21.70;1.00
19805;DHT22;10062;51.052;13.756;2023-05-24T13:40:13;21.70;1.00
19805;DHT22;10062;51.052;13.756;2023-05-24T13:42:46;21.60;1.00
19805;DHT22;10062;51.052;13.756;2023-05-24T13:45:18;21.60;1.00
19805;DHT22;10062;51.052;13.756;2023-05-24T13:47:51;21.20;1.00
19805;DHT22;10062;51.052;13.756;2023-05-24T13:50:22;21.40;1.00
19805;DHT22;10062;51.052;13.756;2023-05-24T13:52:56;21.60;1.00
19805;DHT22;10062;51.052;13.756;2023-05-24T13:55:31;19.30;1.00
19805;DHT22;10062;51.052;13.756;2023-05-24T13:58:05;21.80;1.00
19805;DHT22;10062;51.052;13.756;2023-05-24T14:00:37;22.00;1.00
19805;DHT22;10062;51.052;13.756;2023-05-24T14:03:08;22.20;1.00
19805;DHT22;10062;51.052;13.756;2023-05-24T14:05:42;21.30;1.00
19805;DHT22;10062;51.052;13.756;2023-05-24T14:10:46;20.80;1.00
19805;DHT22;10062;51.052;13.756;2023-05-24T14:13:20;21.60;1.00
19805;DHT22;10062;51.052;13.756;2023-05-24T14:15:52;22.10;1.00
19805;DHT22;10062;51.052;13.756;2023-05-24T14:18:24;22.10;1.00
19805;DHT22;10062;51.052;13.756;2023-05-24T14:20:56;21.60;1.00
19805;DHT22;10062;51.052;13.756;2023-05-24T14:23:27;21.30;1.00
19805;DHT22;10062;51.052;13.756;2023-05-24T14:26:01;21.60;1.00
19805;DHT22;10062;51.052;13.756;2023-05-24T14:28:34;21.00;1.00
19805;DHT22;10062;51.052;13.756;2023-05-24T14:31:05;20.30;1.00
19805;DHT22;10062;51.052;13.756;2023-05-24T14:33:37;20.20;1.00
19805;DHT22;10062;51.052;13.756;2023-05-24T14:36:09;20.30;1.00
19805;DHT22;10062;51.052;13.756;2023-05-24T14:38:40;20.20;1.00
19805;DHT22;10062;51.052;13.756;2023-05-24T14:41:12;20.40;1.00
19805;DHT22;10062;51.052;13.756;2023-05-24T14:43:46;20.30;1.00
19805;DHT22;10062;51.052;13.756;2023-05-24T14:46:17;20.50;1.00
19805;DHT22;10062;51.052;13.756;2023-05-24T14:48:49;20.70;1.00
19805;DHT22;10062;51.052;13.756;2023-05-24T14:51:21;20.60;1.00
19805;DHT22;10062;51.052;13.756;2023-05-24T14:53:53;20.20;1.00
19805;DHT22;10062;51.052;13.756;2023-05-24T14:56:24;20.30;1.00
19805;DHT22;10062;51.052;13.756;2023-05-24T14:58:58;20.70;1.00
19805;DHT22;10062;51.052;13.756;2023-05-24T15:01:29;21.20;1.00
19805;DHT22;10062;51.052;13.756;2023-05-24T15:04:01;21.40;1.00
19805;DHT22;10062;51.052;13.756;2023-05-24T15:09:06;21.80;1.00
19805;DHT22;10062;51.052;13.756;2023-05-24T15:11:37;21.80;1.00
19805;DHT22;10062;51.052;13.756;2023-05-24T15:14:10;21.70;1.00
19805;DHT22;10062;51.052;13.756;2023-05-24T15:16:42;21.30;1.00
19805;DHT22;10062;51.052;13.756;2023-05-24T15:19:14;21.10;1.00
19805;DHT22;10062;51.052;13.756;2023-05-24T15:21:45;21.00;1.00
19805;DHT22;10062;51.052;13.756;2023-05-24T15:24:17;20.20;1.00
19805;DHT22;10062;51.052;13.756;2023-05-24T15:26:49;19.70;1.00
19805;DHT22;10062;51.052;13.756;2023-05-24T15:29:22;19.50;1.00
19805;DHT22;10062;51.052;13.756;2023-05-24T15:34:27;19.00;1.00
19805;DHT22;10062;51.052;13.756;2023-05-24T15:36:59;19.00;1.00
19805;DHT22;10062;51.052;13.756;2023-05-24T15:39:31;19.00;1.00
19805;DHT22;10062;51.052;13.756;2023-05-24T15:42:03;19.10;1.00
19805;DHT22;10062;51.052;13.756;2023-05-24T15:44:36;18.70;1.00
19805;DHT22;10062;51.052;13.756;2023-05-24T15:47:08;18.50;1.00
19805;DHT22;10062;51.052;13.756;2023-05-24T15:49:40;18.40;1.00
19805;DHT22;10062;51.052;13.756;2023-05-24T15:52:12;18.50;1.00
19805;DHT22;10062;51.052;13.756;2023-05-24T15:54:43;18.80;1.00
19805;DHT22;10062;51.052;13.756;2023-05-24T15:57:15;18.80;1.00
19805;DHT22;10062;51.052;13.756;2023-05-24T15:59:48;18.80;1.00
19805;DHT22;10062;51.052;13.756;2023-05-24T16:02:20;18.30;1.00
19805;DHT22;10062;51.052;13.756;2023-05-24T16:04:52;18.00;1.00
19805;DHT22;10062;51.052;13.756;2023-05-24T16:07:23;18.00;1.00
19805;DHT22;10062;51.052;13.756;2023-05-24T16:12:27;18.20;1.00
19805;DHT22;10062;51.052;13.756;2023-05-24T16:15:00;18.20;1.00
19805;DHT22;10062;51.052;13.756;2023-05-24T16:17:32;17.90;1.00
19805;DHT22;10062;51.052;13.756;2023-05-24T16:20:04;17.90;1.00
19805;DHT22;10062;51.052;13.756;2023-05-24T16:22:36;17.90;1.00
19805;DHT22;10062;51.052;13.756;2023-05-24T16:25:09;17.80;1.00
19805;DHT22;10062;51.052;13.756;2023-05-24T16:27:40;17.80;1.00
19805;DHT22;10062;51.052;13.756;2023-05-24T16:30:14;17.50;1.00
19805;DHT22;10062;51.052;13.756;2023-05-24T16:32:45;17.40;1.00
19805;DHT22;10062;51.052;13.756;2023-05-24T16:35:17;17.20;1.00
19805;DHT22;10062;51.052;13.756;2023-05-24T16:37:50;17.20;1.00
19805;DHT22;10062;51.052;13.756;2023-05-24T16:42:53;17.40;1.00